createdAt,value
2022-11-20T00:00:56.606Z,29.65
2022-11-20T00:03:28.265Z,29.60
2022-11-20T00:06:04.412Z,30.30
2022-11-20T00:08:37.068Z,28.15
2022-11-20T00:11:16.319Z,31.23
2022-11-20T00:13:53.905Z,29.88
2022-11-20T00:16:27.720Z,29.27
2022-11-20T00:18:59.317Z,31.27
2022-11-20T00:21:31.221Z,30.05
2022-11-20T00:24:02.846Z,31.38
2022-11-20T00:26:34.569Z,29.92
2022-11-20T00:29:06.229Z,29.98
2022-11-20T00:31:37.807Z,30.35
2022-11-20T00:34:11.064Z,29.83
2022-11-20T00:36:42.687Z,30.27
2022-11-20T00:39:14.383Z,31.20
2022-11-20T00:41:46.046Z,32.38
2022-11-20T00:44:17.664Z,32.25
2022-11-20T00:46:49.251Z,30.30
2022-11-20T00:49:21.224Z,31.83
2022-11-20T00:51:53.119Z,31.17
2022-11-20T00:54:24.863Z,30.90
2022-11-20T00:56:56.544Z,31.98
2022-11-20T00:59:28.668Z,30.77
2022-11-20T01:02:01.677Z,32.92
2022-11-20T01:04:33.257Z,30.40
2022-11-20T01:07:04.916Z,30.33
2022-11-20T01:09:36.524Z,29.60
2022-11-20T01:12:08.350Z,32.80
2022-11-20T01:14:39.891Z,30.33
2022-11-20T01:17:11.533Z,31.42
2022-11-20T01:19:43.115Z,31.67
2022-11-20T01:22:14.798Z,29.98
2022-11-20T01:24:46.477Z,31.92
2022-11-20T01:27:18.059Z,31.75
2022-11-20T01:29:49.620Z,32.45
2022-11-20T01:32:21.252Z,33.15
2022-11-20T01:34:52.778Z,32.25
2022-11-20T01:37:24.450Z,32.13
2022-11-20T01:39:56.004Z,31.08
2022-11-20T01:42:46.646Z,30.92
2022-11-20T01:46:03.442Z,30.60
2022-11-20T01:49:03.463Z,29.85
2022-11-20T01:51:34.919Z,29.02
2022-11-20T01:54:13.056Z,28.77
2022-11-20T01:56:46.848Z,31.60
2022-11-20T01:59:21.044Z,28.38
2022-11-20T02:01:54.665Z,29.73
2022-11-20T02:04:26.872Z,27.85
2022-11-20T02:07:01.597Z,27.38
2022-11-20T02:12:05.208Z,30.02
2022-11-20T02:14:36.828Z,28.77
2022-11-20T02:17:09.352Z,29.73
2022-11-20T02:19:41.023Z,28.70
2022-11-20T02:22:35.132Z,30.10
2022-11-20T02:25:12.348Z,29.90
2022-11-20T02:27:44.152Z,27.80
2022-11-20T02:30:15.788Z,27.73
2022-11-20T02:32:47.504Z,26.75
2022-11-20T02:35:19.254Z,28.75
2022-11-20T02:38:01.439Z,28.85
2022-11-20T02:40:33.219Z,28.42
2022-11-20T02:43:04.971Z,26.77
2022-11-20T02:45:36.680Z,29.63
2022-11-20T02:48:08.800Z,27.33
2022-11-20T02:50:41.027Z,27.08
2022-11-20T02:53:12.665Z,26.30
2022-11-20T02:55:44.328Z,26.52
2022-11-20T02:58:15.928Z,27.77
2022-11-20T03:00:49.843Z,25.55
2022-11-20T03:03:21.414Z,28.00
2022-11-20T03:05:56.081Z,25.33
2022-11-20T03:08:27.694Z,27.02
2022-11-20T03:11:04.219Z,28.13
2022-11-20T03:13:37.405Z,26.63
2022-11-20T03:16:15.165Z,26.67
2022-11-20T03:18:47.218Z,26.50
2022-11-20T03:21:18.913Z,25.73
2022-11-20T03:23:50.448Z,25.63
2022-11-20T03:26:24.972Z,26.80
2022-11-20T03:28:59.108Z,26.80
2022-11-20T03:31:41.511Z,27.85
2022-11-20T03:34:13.337Z,27.23
2022-11-20T03:36:45.091Z,28.25
2022-11-20T03:39:16.704Z,25.70
2022-11-20T03:41:48.777Z,22.95
2022-11-20T03:44:22.315Z,26.15
2022-11-20T03:46:53.927Z,24.70
2022-11-20T03:49:25.449Z,24.45
2022-11-20T03:51:57.323Z,25.98
2022-11-20T03:54:28.863Z,25.67
2022-11-20T03:57:00.455Z,25.40
2022-11-20T03:59:32.252Z,26.63
2022-11-20T04:02:03.953Z,25.85
2022-11-20T04:04:37.521Z,24.45
2022-11-20T04:07:09.830Z,25.17
2022-11-20T04:09:41.465Z,26.20
2022-11-20T04:12:15.720Z,27.10
2022-11-20T04:14:47.309Z,31.08
2022-11-20T04:17:18.923Z,31.05
2022-11-20T04:19:50.502Z,31.30
2022-11-20T04:22:22.130Z,26.98
2022-11-20T04:24:53.741Z,29.30
2022-11-20T04:27:25.405Z,29.70
2022-11-20T04:29:56.993Z,28.77
2022-11-20T04:32:29.737Z,28.27
2022-11-20T04:35:01.311Z,29.67
2022-11-20T04:37:32.898Z,30.90
2022-11-20T04:40:04.912Z,27.33
2022-11-20T04:42:36.487Z,28.05
2022-11-20T04:45:08.376Z,28.60
2022-11-20T04:47:39.984Z,28.20
2022-11-20T04:50:11.740Z,27.65
2022-11-20T04:52:43.377Z,27.73
2022-11-20T04:55:15.003Z,27.10
2022-11-20T04:57:46.621Z,27.45
2022-11-20T05:00:18.336Z,26.98
2022-11-20T05:02:50.083Z,27.13
2022-11-20T05:05:21.671Z,27.45
2022-11-20T05:07:58.516Z,28.65
2022-11-20T05:13:01.540Z,28.83
2022-11-20T05:15:33.467Z,29.83
2022-11-20T05:18:05.264Z,31.80
2022-11-20T05:20:37.310Z,29.92
2022-11-20T05:23:08.883Z,30.67
2022-11-20T05:25:40.445Z,30.13
2022-11-20T05:28:12.081Z,29.75
2022-11-20T05:30:43.666Z,28.33
2022-11-20T05:33:15.648Z,29.17
2022-11-20T05:35:47.271Z,29.67
2022-11-20T05:38:18.852Z,30.20
2022-11-20T05:40:50.593Z,29.00
2022-11-20T05:43:22.443Z,29.13
2022-11-20T05:45:57.852Z,28.63
2022-11-20T05:48:29.487Z,28.02
2022-11-20T05:51:05.563Z,29.17
2022-11-20T05:53:37.456Z,28.15
2022-11-20T05:56:12.644Z,28.75
2022-11-20T05:58:49.666Z,29.02
2022-11-20T06:01:26.856Z,28.88
2022-11-20T06:03:58.463Z,30.20
2022-11-20T06:06:30.011Z,29.00
2022-11-20T06:09:01.620Z,29.67
2022-11-20T06:11:33.231Z,27.92
2022-11-20T06:14:04.856Z,30.45
2022-11-20T06:16:36.439Z,29.25
2022-11-20T06:19:08.046Z,29.65
2022-11-20T06:21:39.837Z,28.02
2022-11-20T06:24:12.138Z,28.15
2022-11-20T06:26:44.079Z,28.20
2022-11-20T06:29:15.710Z,28.55
2022-11-20T06:31:47.412Z,29.58
2022-11-20T06:34:18.984Z,28.35
2022-11-20T06:36:53.651Z,29.50
2022-11-20T06:39:25.310Z,28.98
2022-11-20T06:41:58.964Z,27.60
2022-11-20T06:44:31.014Z,28.00
2022-11-20T06:47:02.763Z,28.83
2022-11-20T06:49:35.441Z,27.50
2022-11-20T06:52:07.233Z,27.30
2022-11-20T06:54:39.009Z,27.58
2022-11-20T06:57:10.701Z,27.38
2022-11-20T06:59:42.321Z,26.75
2022-11-20T07:02:14.025Z,26.55
2022-11-20T07:04:48.676Z,26.30
2022-11-20T07:07:20.374Z,27.33
2022-11-20T07:09:52.038Z,27.80
2022-11-20T07:12:23.572Z,27.90
2022-11-20T07:14:55.782Z,27.15
2022-11-20T07:17:27.645Z,28.90
2022-11-20T07:19:59.292Z,27.38
2022-11-20T07:22:30.901Z,26.02
2022-11-20T07:25:05.948Z,25.50
2022-11-20T07:27:37.539Z,24.67
2022-11-20T07:30:09.769Z,26.10
2022-11-20T07:32:41.686Z,25.45
2022-11-20T07:35:13.880Z,25.20
2022-11-20T07:37:49.537Z,25.55
2022-11-20T07:40:21.343Z,25.73
2022-11-20T07:42:56.401Z,25.98
2022-11-20T07:45:27.975Z,18.53
2022-11-20T07:47:59.566Z,24.30
2022-11-20T07:50:36.415Z,24.23
2022-11-20T07:53:08.261Z,23.00
2022-11-20T07:55:41.208Z,22.98
2022-11-20T07:58:12.878Z,26.33
2022-11-20T08:00:44.600Z,24.10
2022-11-20T08:03:20.265Z,25.00
2022-11-20T08:06:01.344Z,26.92
2022-11-20T08:08:34.202Z,26.23
2022-11-20T08:11:36.036Z,27.92
2022-11-20T08:14:14.009Z,25.75
2022-11-20T08:16:48.103Z,26.52
2022-11-20T08:19:20.437Z,26.92
2022-11-20T08:21:52.275Z,27.63
2022-11-20T08:24:23.936Z,26.23
2022-11-20T08:26:58.864Z,27.23
2022-11-20T08:29:30.528Z,27.38
2022-11-20T08:32:02.175Z,27.05
2022-11-20T08:34:33.754Z,26.63
2022-11-20T08:37:05.512Z,26.55
2022-11-20T08:39:37.125Z,24.40
2022-11-20T08:42:09.472Z,26.13
2022-11-20T08:44:41.049Z,25.20
2022-11-20T08:47:12.699Z,27.38
2022-11-20T08:49:44.370Z,28.45
2022-11-20T08:52:15.997Z,26.70
2022-11-20T08:54:47.636Z,27.90
2022-11-20T08:57:19.256Z,27.25
2022-11-20T09:00:05.443Z,26.92
2022-11-20T09:02:39.087Z,25.75
2022-11-20T09:05:10.789Z,26.27
2022-11-20T09:07:43.157Z,25.38
2022-11-20T09:10:30.425Z,23.55
2022-11-20T09:13:02.646Z,25.98
2022-11-20T09:15:34.898Z,24.80
2022-11-20T09:18:06.545Z,27.77
2022-11-20T09:20:38.337Z,25.25
2022-11-20T09:23:10.383Z,25.23
2022-11-20T09:25:42.403Z,24.15
2022-11-20T09:28:14.267Z,25.40
2022-11-20T09:30:45.936Z,24.13
2022-11-20T09:33:18.071Z,25.83
2022-11-20T09:35:49.701Z,23.80
2022-11-20T09:38:21.298Z,25.13
2022-11-20T09:40:59.190Z,26.52
2022-11-20T09:43:42.544Z,26.33
2022-11-20T09:46:30.577Z,25.17
2022-11-20T09:49:08.252Z,24.80
2022-11-20T09:51:59.077Z,26.20
2022-11-20T09:54:34.855Z,26.95
2022-11-20T09:57:12.579Z,27.70
2022-11-20T10:00:01.592Z,25.98
2022-11-20T10:03:04.892Z,26.23
2022-11-20T10:05:42.337Z,26.20
2022-11-20T10:08:23.096Z,25.38
2022-11-20T10:11:05.585Z,27.38
2022-11-20T10:13:49.314Z,26.52
2022-11-20T10:16:42.593Z,26.30
2022-11-20T10:19:31.069Z,27.67
2022-11-20T10:22:21.204Z,27.27
2022-11-20T10:24:52.685Z,27.55
2022-11-20T10:27:33.309Z,26.80
2022-11-20T10:30:12.221Z,27.05
2022-11-20T10:32:47.992Z,27.33
2022-11-20T10:35:29.065Z,28.50
2022-11-20T10:38:03.969Z,28.55
2022-11-20T10:43:32.903Z,27.60
2022-11-20T10:46:09.634Z,27.30
2022-11-20T10:48:44.184Z,26.33
2022-11-20T10:51:18.822Z,28.40
2022-11-20T10:54:12.082Z,29.30
2022-11-20T10:56:57.117Z,28.25
2022-11-20T10:59:44.706Z,28.48
2022-11-20T11:02:34.465Z,30.58
2022-11-20T11:05:29.878Z,28.73
2022-11-20T11:08:01.741Z,28.98
2022-11-20T11:10:43.195Z,29.25
2022-11-20T11:13:40.765Z,27.98
2022-11-20T11:16:27.526Z,30.50
2022-11-20T11:19:14.497Z,29.63
2022-11-20T11:21:55.003Z,28.70
2022-11-20T11:24:42.067Z,29.42
2022-11-20T11:27:18.818Z,27.08
2022-11-20T11:29:51.307Z,31.08
2022-11-20T11:32:23.183Z,29.70
2022-11-20T11:35:07.448Z,31.75
2022-11-20T11:37:40.527Z,31.42
2022-11-20T11:40:28.299Z,30.40
2022-11-20T11:43:26.794Z,30.95
2022-11-20T11:45:58.583Z,30.80
2022-11-20T11:48:30.256Z,31.30
2022-11-20T11:51:01.848Z,30.58
2022-11-20T11:53:40.089Z,31.55
2022-11-20T11:56:14.537Z,30.80
2022-11-20T11:58:49.315Z,33.40
2022-11-20T12:01:45.178Z,31.33
2022-11-20T12:04:22.544Z,31.05
2022-11-20T12:07:31.127Z,31.65
2022-11-20T12:10:02.969Z,31.02
2022-11-20T12:12:42.547Z,30.95
2022-11-20T12:15:24.209Z,30.40
2022-11-20T12:17:56.268Z,30.10
2022-11-20T12:20:35.985Z,29.77
2022-11-20T12:23:19.980Z,29.92
2022-11-20T12:25:55.251Z,31.17
2022-11-20T12:28:52.843Z,28.63
2022-11-20T12:31:40.358Z,28.98
2022-11-20T12:34:33.503Z,30.48
2022-11-20T12:37:14.110Z,28.83
2022-11-20T12:39:51.617Z,31.38
2022-11-20T12:43:00.596Z,31.08
2022-11-20T12:45:50.460Z,32.17
2022-11-20T12:48:24.757Z,31.17
2022-11-20T12:51:15.632Z,31.75
2022-11-20T12:54:18.368Z,29.27
2022-11-20T12:56:52.654Z,31.23
2022-11-20T12:59:45.640Z,29.58
2022-11-20T13:02:28.742Z,31.00
2022-11-20T13:05:19.917Z,31.05
2022-11-20T13:07:54.040Z,31.67
2022-11-20T13:11:02.201Z,31.95
2022-11-20T13:13:43.408Z,30.67
2022-11-20T13:16:37.602Z,31.77
2022-11-20T13:19:13.443Z,31.85
2022-11-20T13:21:52.796Z,30.50
2022-11-20T13:24:27.685Z,31.73
2022-11-20T13:27:19.147Z,31.60
2022-11-20T13:30:15.544Z,30.80
2022-11-20T13:33:18.252Z,31.85
2022-11-20T13:36:23.625Z,30.27
2022-11-20T13:38:57.001Z,23.48
2022-11-20T13:41:38.908Z,30.27
2022-11-20T13:44:23.073Z,31.85
2022-11-20T13:46:54.842Z,31.48
2022-11-20T13:49:32.584Z,31.40
2022-11-20T13:52:42.635Z,31.02
2022-11-20T13:55:37.436Z,32.60
2022-11-20T13:58:25.673Z,31.20
2022-11-20T14:01:22.683Z,31.92
2022-11-20T14:04:10.126Z,32.35
2022-11-20T14:06:44.223Z,32.33
2022-11-20T14:09:32.991Z,30.58
2022-11-20T14:12:15.222Z,32.00
2022-11-20T14:14:52.239Z,31.50
2022-11-20T14:17:29.865Z,31.13
2022-11-20T14:20:15.184Z,34.83
2022-11-20T14:22:51.707Z,31.95
2022-11-20T14:25:28.259Z,33.35
2022-11-20T14:28:02.060Z,33.03
2022-11-20T14:30:45.695Z,33.17
2022-11-20T14:33:18.377Z,32.80
2022-11-20T14:35:53.270Z,30.30
2022-11-20T14:38:34.069Z,33.42
2022-11-20T14:41:38.509Z,31.77
2022-11-20T14:44:11.075Z,32.75
2022-11-20T14:46:43.369Z,33.03
2022-11-20T14:49:15.243Z,32.05
2022-11-20T14:51:47.571Z,31.88
2022-11-20T14:54:25.058Z,32.30
2022-11-20T14:57:03.074Z,33.65
2022-11-20T14:59:36.768Z,33.80
2022-11-20T15:02:14.102Z,35.30
2022-11-20T15:04:51.117Z,34.78
2022-11-20T15:07:26.566Z,34.70
2022-11-20T15:10:11.431Z,34.80
2022-11-20T15:13:01.058Z,33.10
2022-11-20T15:15:53.278Z,34.35
2022-11-20T15:18:45.742Z,35.03
2022-11-20T15:21:21.964Z,35.53
2022-11-20T15:23:54.682Z,37.35
2022-11-20T15:26:28.116Z,36.33
2022-11-20T15:28:59.915Z,35.17
2022-11-20T15:31:31.477Z,34.97
2022-11-20T15:34:03.100Z,34.25
2022-11-20T15:36:34.710Z,35.28
2022-11-20T15:39:08.228Z,37.13
2022-11-20T15:41:40.029Z,35.00
2022-11-20T15:44:14.792Z,36.63
2022-11-20T15:46:47.621Z,34.65
2022-11-20T15:49:23.791Z,34.95
2022-11-20T15:51:55.414Z,37.03
2022-11-20T15:54:27.307Z,34.22
2022-11-20T15:57:00.222Z,36.85
2022-11-20T15:59:34.014Z,37.15
2022-11-20T16:02:15.945Z,34.83
2022-11-20T16:04:50.928Z,34.70
2022-11-20T16:07:25.689Z,37.40
2022-11-20T16:09:57.613Z,34.70
2022-11-20T16:12:47.561Z,35.67
2022-11-20T16:15:39.761Z,36.22
2022-11-20T16:18:12.832Z,36.30
2022-11-20T16:20:49.037Z,35.22
2022-11-20T16:23:21.315Z,35.45
2022-11-20T16:25:53.052Z,35.97
2022-11-20T16:28:24.775Z,35.00
2022-11-20T16:30:56.368Z,36.13
2022-11-20T16:33:28.013Z,36.88
2022-11-20T16:36:07.887Z,36.38
2022-11-20T16:38:44.584Z,37.13
2022-11-20T16:41:19.176Z,36.78
2022-11-20T16:43:58.504Z,35.58
2022-11-20T16:46:32.092Z,38.03
2022-11-20T16:49:12.174Z,38.15
2022-11-20T16:51:47.026Z,38.97
2022-11-20T16:56:54.243Z,37.90
2022-11-20T16:59:26.267Z,39.05
2022-11-20T17:01:57.901Z,40.58
2022-11-20T17:04:34.556Z,40.88
2022-11-20T17:07:08.087Z,41.10
2022-11-20T17:09:40.058Z,41.95
2022-11-20T17:12:11.713Z,40.58
2022-11-20T17:14:43.587Z,43.35
2022-11-20T17:17:15.264Z,41.63
2022-11-20T17:19:47.200Z,41.72
2022-11-20T17:22:18.822Z,42.00
2022-11-20T17:24:53.250Z,42.45
2022-11-20T17:27:24.904Z,41.72
2022-11-20T17:29:58.146Z,40.22
2022-11-20T17:32:29.865Z,38.85
2022-11-20T17:35:01.713Z,39.42
2022-11-20T17:37:33.258Z,37.70
2022-11-20T17:40:05.470Z,43.45
2022-11-20T17:42:37.109Z,38.53
2022-11-20T17:45:12.216Z,41.13
2022-11-20T17:47:46.466Z,38.22
2022-11-20T17:50:18.180Z,37.15
2022-11-20T17:52:49.780Z,38.85
2022-11-20T17:55:22.029Z,36.90
2022-11-20T17:57:53.742Z,35.80
2022-11-20T18:00:26.138Z,34.67
2022-11-20T18:02:57.845Z,34.25
2022-11-20T18:05:29.599Z,34.92
2022-11-20T18:08:01.202Z,35.58
2022-11-20T18:10:35.988Z,36.30
2022-11-20T18:13:07.562Z,33.15
2022-11-20T18:15:39.177Z,30.23
2022-11-20T18:18:12.995Z,31.20
2022-11-20T18:20:44.645Z,29.13
2022-11-20T18:23:16.371Z,27.73
2022-11-20T18:25:47.985Z,26.13
2022-11-20T18:28:20.106Z,26.42
2022-11-20T18:30:51.728Z,25.13
2022-11-20T18:33:28.256Z,24.55
2022-11-20T18:36:15.082Z,24.30
2022-11-20T18:38:48.997Z,23.00
2022-11-20T18:41:40.468Z,22.67
2022-11-20T18:44:38.699Z,22.83
2022-11-20T18:47:14.973Z,22.20
2022-11-20T18:49:53.043Z,24.40
2022-11-20T18:52:30.408Z,23.92
2022-11-20T18:55:04.022Z,24.38
2022-11-20T18:57:38.617Z,26.25
2022-11-20T19:00:11.039Z,25.58
2022-11-20T19:02:45.599Z,25.35
2022-11-20T19:05:17.372Z,26.60
2022-11-20T19:07:49.172Z,26.63
2022-11-20T19:10:21.420Z,28.30
2022-11-20T19:12:53.063Z,28.60
2022-11-20T19:15:24.659Z,29.27
2022-11-20T19:17:57.677Z,31.48
2022-11-20T19:20:29.637Z,31.88
2022-11-20T19:23:01.549Z,31.85
2022-11-20T19:25:37.871Z,31.08
2022-11-20T19:28:09.676Z,32.90
2022-11-20T19:30:43.010Z,34.28
2022-11-20T19:33:14.748Z,35.65
2022-11-20T19:35:46.364Z,31.27
2022-11-20T19:38:18.329Z,32.65
2022-11-20T19:40:50.026Z,30.40
2022-11-20T19:43:21.674Z,32.63
2022-11-20T19:45:53.465Z,31.27
2022-11-20T19:48:25.159Z,31.35
2022-11-20T19:50:56.814Z,32.05
2022-11-20T19:53:29.902Z,32.53
2022-11-20T19:56:01.968Z,31.42
2022-11-20T19:58:33.905Z,30.92
2022-11-20T20:01:09.098Z,32.22
2022-11-20T20:03:41.474Z,32.28
2022-11-20T20:06:19.825Z,32.70
2022-11-20T20:09:12.579Z,33.17
2022-11-20T20:11:48.168Z,31.52
2022-11-20T20:14:20.078Z,31.58
2022-11-20T20:16:53.715Z,29.73
2022-11-20T20:19:25.698Z,32.03
2022-11-20T20:22:01.792Z,31.25
2022-11-20T20:24:38.741Z,31.08
2022-11-20T20:27:10.473Z,30.60
2022-11-20T20:29:42.277Z,29.13
2022-11-20T20:32:16.838Z,30.45
2022-11-20T20:34:48.489Z,30.70
2022-11-20T20:37:20.070Z,30.98
2022-11-20T20:39:51.728Z,28.63
2022-11-20T20:42:23.334Z,28.35
2022-11-20T20:45:11.253Z,31.80
2022-11-20T20:47:45.862Z,28.85
2022-11-20T20:50:20.848Z,30.30
2022-11-20T20:52:52.436Z,29.67
2022-11-20T20:55:25.287Z,29.52
2022-11-20T20:57:56.929Z,29.58
2022-11-20T21:00:28.668Z,28.73
2022-11-20T21:03:00.389Z,29.88
2022-11-20T21:05:32.044Z,28.10
2022-11-20T21:08:21.824Z,29.00
2022-11-20T21:11:03.157Z,26.83
2022-11-20T21:13:36.356Z,28.23
2022-11-20T21:16:08.105Z,28.73
2022-11-20T21:18:39.903Z,27.13
2022-11-20T21:21:35.618Z,25.63
2022-11-20T21:24:07.659Z,26.23
2022-11-20T21:26:39.370Z,27.00
2022-11-20T21:29:10.960Z,25.02
2022-11-20T21:31:42.879Z,24.05
2022-11-20T21:34:15.828Z,26.50
2022-11-20T21:36:47.693Z,25.35
2022-11-20T21:39:22.969Z,26.33
2022-11-20T21:41:54.973Z,26.35
2022-11-20T21:44:41.039Z,24.77
2022-11-20T21:47:13.030Z,23.58
2022-11-20T21:49:44.680Z,23.60
2022-11-20T21:52:17.712Z,24.73
2022-11-20T21:54:49.259Z,23.65
2022-11-20T21:57:21.013Z,23.33
2022-11-20T21:59:52.750Z,23.88
2022-11-20T22:02:24.950Z,24.10
2022-11-20T22:04:56.581Z,23.10
2022-11-20T22:07:28.215Z,25.05
2022-11-20T22:10:00.034Z,25.10
2022-11-20T22:12:32.288Z,25.30
2022-11-20T22:15:07.494Z,23.55
2022-11-20T22:17:57.964Z,22.63
2022-11-20T22:20:29.568Z,21.38
2022-11-20T22:23:01.336Z,23.90
2022-11-20T22:25:33.682Z,23.20
2022-11-20T22:28:08.051Z,23.20
2022-11-20T22:30:46.218Z,23.33
2022-11-20T22:33:21.324Z,20.60
2022-11-20T22:35:56.400Z,18.40
2022-11-20T22:38:35.073Z,15.20
2022-11-20T22:41:15.800Z,14.27
2022-11-20T22:44:12.497Z,12.52
2022-11-20T22:46:46.411Z,13.63
2022-11-20T22:49:21.116Z,13.52
2022-11-20T22:52:02.902Z,13.00
2022-11-20T22:54:38.288Z,13.52
2022-11-20T22:57:14.813Z,13.52
2022-11-20T22:59:46.421Z,13.18
2022-11-20T23:02:32.137Z,13.02
2022-11-20T23:05:07.060Z,13.07
2022-11-20T23:07:46.513Z,12.52
2022-11-20T23:10:25.896Z,11.95
2022-11-20T23:13:19.758Z,13.20
2022-11-20T23:16:46.047Z,13.65
2022-11-20T23:19:00.547Z,12.98
2022-11-20T23:21:36.678Z,12.10
2022-11-20T23:24:18.483Z,13.10
2022-11-20T23:26:51.262Z,13.10
2022-11-20T23:29:22.815Z,12.70
2022-11-20T23:31:54.432Z,13.63
2022-11-20T23:34:26.437Z,12.00
2022-11-20T23:36:58.252Z,12.13
2022-11-20T23:39:31.037Z,13.13
2022-11-20T23:42:02.969Z,14.55
2022-11-20T23:44:34.837Z,12.52
2022-11-20T23:47:06.652Z,11.70
2022-11-20T23:49:38.209Z,13.52
2022-11-20T23:52:12.333Z,13.40
2022-11-20T23:54:44.411Z,12.40
2022-11-20T23:57:16.122Z,12.75
